Tiempo atmosférico en la estación meteorológica de La Aldea de San Nicolás, Las Palmas (318 m.)



Fecha
DESCASC
Temp. máxima en grados centígrados (hora)
DESCASC
Temp. mínima en grados centígrados (hora)
DESCASC
Temp. media en grados centígrados
DESCASC
Racha de viento máxima en m/sg (hora)
DESCASC
Velocidad máxima media en intervalos de 10 minutos(hora)
DESCASC
Precipitaciones diarias en mm
DESCASC
Precipitaciones de 00:00 a 06:00 en mm
DESCASC
Precipitaciones de 06:00 a 12:00 en mm
DESCASC
Precipitaciones de 12:00 a 18:00 en mm
DESCASC
Precipitaciones de 18:00 a 24:00 en mm
DESCASC
23-06-2019 26.4 (15:50) 21.1 (05:50) 23.8 11.67 (02:10) 6.39 (10:40) 0 0 0 0 0
22-06-2019 26.3 (18:00) 20 (06:40) 23.1 16.11 (20:10) 10.28 (16:00) 0 0 0 0 0
21-06-2019 27 (14:50) 20.8 (07:50) 23.9 20.28 (15:30) 8.61 (23:40) 0 0 0 0 0
20-06-2019 28.1 (12:20) 20.9 (00:00) 24.5 17.78 (22:30) 8.61 (20:50) 0 0 0 0 0
19-06-2019 29.5 (16:40) 21.3 (00:00) 25.4 13.61 (17:30) 7.5 (19:00) 0 0 0 0 0
18-06-2019 27.4 (16:10) 17 (00:00) 22.2 8.33 (14:30) 5.28 (14:30) 0 0 0 0 0
17-06-2019 25.2 (15:40) 15.3 (00:00) 20.3 7.22 (15:20) 5 (14:40) 0 0 0 0 0
16-06-2019 25.3 (14:30) 15 (00:00) 20.1 10 (13:20) 5.56 (10:40) 0 0 0 0 0
15-06-2019 26.2 (17:30) 14.6 (00:00) 20.4 12.78 (01:40) 6.94 (22:40) 0 0 0 0 0
14-06-2019 25.7 (18:40) 15 (00:00) 20.4 14.17 (19:00) 6.11 (23:40) 0 0 0 0 0
13-06-2019 27.2 (15:10) 19 (00:00) 23.1 14.17 (18:50) 6.67 (01:10) 0 0 0 0 0
12-06-2019 28.5 (16:10) 18.4 (00:00) 23.4 18.61 (08:30) 9.17 (09:50) 0.6 0.4 0.2 0 0
11-06-2019 28.5 (14:50) 19.2 (00:00) 23.9 19.72 (18:30) 10.83 (11:40) 0 0 0 0 0
10-06-2019 27.3 (15:40) 19.2 (00:00) 23.3 23.06 (16:40) 12.78 (01:10) 0 0 0 0 0
09-06-2019 25.1 (15:30) 19.3 (00:00) 22.2 24.72 (19:40) 13.06 (21:50) 0 0 0 0 0
08-06-2019 26.5 (13:10) 20.1 (00:00) 23.3 19.17 (21:30) 9.44 (21:20) 0 0 0 0 0
07-06-2019 26.4 (12:30) 19.3 (00:00) 22.8 18.61 (13:50) 10 (11:50) 0 0 0 0 0
06-06-2019 26.1 (13:10) 19.6 (00:00) 22.9 17.78 (19:50) 8.33 (01:40) 0 0 0 0 0
05-06-2019 26.5 (14:10) 20.2 (00:00) 23.4 19.17 (02:00) 11.39 (00:30) 0 0 0 0 0
04-06-2019 24.7 (14:40) 18.8 (00:00) 21.8 21.39 (16:00) 13.89 (15:00) 0 0 0 0 0
03-06-2019 24.8 (14:30) 18.9 (00:00) 21.8 20.28 (19:20) 13.61 (18:00) 0 0 0 0 0
02-06-2019 26.2 (14:40) 16.3 (00:00) 21.3 16.39 (16:50) 9.72 (16:50) 0 0 0 0 0
01-06-2019 25.7 (15:20) 19.2 (00:00) 22.5 14.72 (19:10) 8.06 (18:50) 0 0 0 0 0
31-05-2019 25.1 (16:30) 18.4 (00:00) 21.8 16.11 (20:40) 9.17 (13:00) 0 0 0 0 0
30-05-2019 24.4 (15:40) 16.1 (00:00) 20.3 16.39 (20:20) 10 (21:10) 0 0 0 0 0
29-05-2019 23.7 (14:50) 18.5 (00:00) 21.1 16.39 (22:50) 10 (15:30) 0 0 0 0 0
28-05-2019 24.2 (14:40) 19.4 (00:00) 21.8 20 (21:00) 10 (21:00) 0 0 0 0 0
27-05-2019 24 (15:00) 16.7 (00:00) 20.4 19.17 (18:10) 10.56 (18:10) 0 0 0 0 0
26-05-2019 24 (16:30) 19.1 (00:00) 21.6 21.39 (00:30) 11.11 (05:00) 0 0 0 0 0

Gráficas

Temp. máximas Temp. mínimas Temp. medias Precipitaciones Rachas de viento máximas Velocidades máximas media en intervalos de 10 minutos

Datos horarios

Fecha y hora oficial Temperatura (ºC) Velocidad del viento (km/h) Dirección del viento Racha (km/h) Dirección de racha Precipitación (mm) Presión (hPa) Tendencia (hPa) Humedad (%)
2019-06-24 23:00:00 20.9 0 Calma 9 Sur 0 -- -- 80
2019-06-24 22:00:00 21.6 5 Sur 12 Sur 0 -- -- 75
2019-06-24 21:00:00 22.6 9 Sur 22 Sur 0 -- -- 71
2019-06-24 20:00:00 25.2 17 Sur 25 Sur 0 -- -- 65
2019-06-24 19:00:00 25.8 16 Sur 24 Sur 0 -- -- 56
2019-06-24 18:00:00 24.8 18 Sur 26 Sur 0 -- -- 63
2019-06-24 17:00:00 25.8 19 Sur 29 Sur 0 -- -- 65
2019-06-24 16:00:00 28 22 Sur 32 Sur 0 -- -- 58
2019-06-24 15:00:00 28.9 22 Sur 34 Sur 0 -- -- 56
2019-06-24 14:00:00 28.8 22 Sur 32 Sur 0 -- -- 53
2019-06-24 13:00:00 28.6 18 Sur 34 Sur 0 -- -- 53
2019-06-24 12:00:00 27.1 22 Sur 32 Sur 0 -- -- 59
2019-06-24 11:00:00 25.6 20 Sur 26 Sur 0 -- -- 66
2019-06-24 10:00:00 23.2 12 Sur 18 Sur 0 -- -- 75
2019-06-24 09:00:00 19.3 0 Calma 6 Norte 0 -- -- 84
2019-06-24 08:00:00 18.7 5 Norte 7 Norte 0 -- -- 84
2019-06-24 07:00:00 18.9 5 Norte 8 Norte 0 -- -- 84
2019-06-24 06:00:00 19.1 0 Calma 8 Norte 0 -- -- 83
2019-06-24 05:00:00 19.1 0 Calma 6 Norte 0 -- -- 82
2019-06-24 04:00:00 19.3 4 Norte 8 Norte 0 -- -- 83
2019-06-24 03:00:00 19.8 0 Calma 9 Sur 0 -- -- 84
2019-06-24 02:00:00 20.4 4 Sur 9 Sur 0 -- -- 81
2019-06-24 01:00:00 21.1 6 Sur 10 Sur 0 -- -- 79
2019-06-24 00:00:00 21.1 5 Sur 10 Sur 0 -- -- 80
2019-06-23 23:00:00 21.2 7 Sur 13 Sur 0 -- -- 79
2019-06-23 22:00:00 21.4 12 Sur 18 Sur 0 -- -- 76
2019-06-23 21:00:00 22.5 11 Sur 29 Sur 0 -- -- 72
2019-06-23 20:00:00 25.1 18 Sur 29 Sur 0 -- -- 63
2019-06-23 19:00:00 26.8 19 Sur 30 Sur 0 -- -- 59
2019-06-23 18:00:00 27.6 18 Sur 32 Sur 0 -- -- 58
2019-06-23 17:00:00 27.8 22 Sur 33 Sur 0 -- -- 57
2019-06-23 16:00:00 27.9 26 Sur 33 Sur 0 -- -- 55
2019-06-23 15:00:00 28 24 Sur 35 Sur 0 -- -- 52
2019-06-23 14:00:00 27.7 24 Sur 30 Sur 0 -- -- 54
2019-06-23 13:00:00 26.6 21 Sur 33 Sur 0 -- -- 55
2019-06-23 12:00:00 25.7 20 Sur 28 Sur 0 -- -- 58
2019-06-23 11:00:00 24 18 Sur 24 Sur 0 -- -- 65
2019-06-23 10:00:00 21.7 6 Sur 10 Sur 0 -- -- 69
2019-06-23 09:00:00 17.9 3 Sur 8 Sudoeste 0 -- -- 84
2019-06-23 08:00:00 17.5 3 Oeste 9 Noroeste 0 -- -- 87
2019-06-23 07:00:00 17.6 0 Calma 12 Sur 0 -- -- 86
2019-06-23 06:00:00 17.9 3 Sur 15 Noroeste 0 -- -- 85
2019-06-23 05:00:00 18 4 Sur 8 Sur 0 -- -- 86
2019-06-23 04:00:00 18.8 6 Sur 24 Nordeste 0 -- -- 81
2019-06-23 03:00:00 19.1 6 Noroeste 17 Noroeste 0 -- -- 77
2019-06-23 02:00:00 18.8 8 Sur 21 Noroeste 0 -- -- 83
2019-06-23 01:00:00 18.9 8 Sur 16 Sur 0 -- -- 82
2019-06-23 00:00:00 19.4 10 Sur 17 Sur 0 -- -- 79
2019-06-22 23:00:00 20.4 6 Norte 24 Este 0 -- -- 65
2019-06-22 22:00:00 20.4 9 Nordeste 31 Noroeste 0 -- -- 67
2019-06-22 21:00:00 20.3 16 Norte 30 Norte 0 -- -- 70
2019-06-22 20:00:00 21.9 19 Nordeste 33 Nordeste 0 -- -- 66
2019-06-22 19:00:00 26 15 Sudoeste 24 Sur 0 -- -- 56
2019-06-22 18:00:00 27.5 16 Sur 31 Sur 0 -- -- 52
2019-06-22 17:00:00 27.5 25 Sur 35 Sur 0 -- -- 52
2019-06-22 16:00:00 27.6 22 Sur 36 Sur 0 -- -- 52
2019-06-22 15:00:00 27.3 21 Sur 31 Sur 0 -- -- 53
2019-06-22 14:00:00 26.7 24 Sur 31 Sur 0 -- -- 54
2019-06-22 13:00:00 25.7 25 Sur 34 Sur 0 -- -- 56
2019-06-22 12:00:00 25 24 Sur 32 Sudoeste 0 -- -- 58
2019-06-22 11:00:00 21.3 17 Norte 33 Norte 0 -- -- 67
2019-06-22 10:00:00 20.1 17 Norte 28 Norte 0 -- -- 67
2019-06-22 09:00:00 17.7 0 Calma 19 Nordeste 0 -- -- 72
2019-06-22 08:00:00 17.4 10 Norte 17 Nordeste 0 -- -- 74
2019-06-22 07:00:00 17.8 8 Nordeste 21 Nordeste 0 -- -- 69
2019-06-22 06:00:00 18.3 14 Nordeste 25 Nordeste 0 -- -- 63
2019-06-22 05:00:00 18 12 Norte 23 Nordeste 0 -- -- 66
2019-06-22 04:00:00 18.3 10 Nordeste 30 Nordeste 0 -- -- 67
2019-06-22 03:00:00 18.5 17 Nordeste 31 Norte 0 -- -- 71
2019-06-22 02:00:00 19.1 17 Noroeste 33 Noroeste 0 -- -- 66
2019-06-22 01:00:00 19.5 14 Norte 42 Nordeste 0 -- -- 57
2019-06-22 00:00:00 19.9 17 Nordeste 35 Este 0 -- -- 59
2019-06-21 23:00:00 20 10 Norte 31 Nordeste 0 -- -- 60
2019-06-21 22:00:00 20.1 13 Norte 33 Norte 0 -- -- 62
2019-06-21 21:00:00 20.4 22 Norte 36 Norte 0 -- -- 63
2019-06-21 20:00:00 22.6 12 Noroeste 19 Noroeste 0 -- -- 59
2019-06-21 19:00:00 23.1 16 Noroeste 28 Norte 0 -- -- 57
2019-06-21 18:00:00 23.1 21 Norte 37 Norte 0 -- -- 58
2019-06-21 17:00:00 23.6 20 Norte 32 Norte 0 -- -- 58
2019-06-21 16:00:00 23.6 24 Norte 38 Norte 0 -- -- 56
2019-06-21 15:00:00 23 16 Norte 32 Norte 0 -- -- 59
2019-06-21 14:00:00 24.9 19 Sur 29 Sur 0 -- -- 61
2019-06-21 13:00:00 24.1 15 Sudoeste 26 Sur 0 -- -- 61
2019-06-21 12:00:00 24.1 18 Sur 34 Norte 0 -- -- 61
2019-06-21 11:00:00 21.7 22 Norte 36 Noroeste 0 -- -- 61
2019-06-21 10:00:00 20.8 22 Norte 39 Norte 0 -- -- 63
2019-06-21 09:00:00 19.8 23 Norte 36 Norte 0 -- -- 60
2019-06-21 08:00:00 19.3 11 Norte 34 Norte 0 -- -- 59
2019-06-21 07:00:00 19.2 19 Norte 32 Norte 0 -- -- 67
2019-06-21 06:00:00 19.4 17 Norte 36 Norte 0 -- -- 63
2019-06-21 05:00:00 19.2 14 Norte 28 Norte 0 -- -- 63
2019-06-21 04:00:00 18.8 3 Sur 17 Norte 0 -- -- 80
2019-06-21 03:00:00 19 6 Sur 11 Sur 0 -- -- 80
2019-06-21 02:00:00 19.6 6 Sur 13 Sudeste 0 -- -- 74
2019-06-21 01:00:00 20.4 8 Norte 30 Norte 0 -- -- 56
2019-06-21 00:00:00 20.9 14 Norte 27 Norte 0 -- -- 54
2019-06-20 23:00:00 21 21 Norte 36 Norte 0 -- -- 57
2019-06-20 22:00:00 21.1 22 Norte 38 Norte 0 -- -- 60
2019-06-20 21:00:00 21.3 14 Norte 28 Noroeste 0 -- -- 64
2019-06-20 20:00:00 22.3 19 Noroeste 42 Norte 0 -- -- 61
2019-06-20 19:00:00 23.6 21 Noroeste 48 Noroeste 0 -- -- 56
2019-06-20 18:00:00 22.9 27 Norte 44 Norte 0 -- -- 59
2019-06-20 17:00:00 23.3 22 Noroeste 44 Noroeste 0 -- -- 56
2019-06-20 16:00:00 27.2 18 Sudoeste 32 Sur 0 -- -- 48
2019-06-20 15:00:00 27.9 25 Sur 32 Sur 0 -- -- 52
2019-06-20 14:00:00 26.6 17 Sur 31 Sur 0 -- -- 56
2019-06-20 13:00:00 26.3 21 Sur 31 Sur 0 -- -- 56
2019-06-20 12:00:00 23.9 16 Sudoeste 41 Noroeste 0 -- -- 62
2019-06-20 11:00:00 22.8 10 Noroeste 33 Norte 0 -- -- 55
2019-06-20 10:00:00 21.8 15 Norte 30 Norte 0 -- -- 58
2019-06-20 09:00:00 20.5 18 Norte 39 Norte 0 -- -- 61
2019-06-20 08:00:00 20 17 Norte 40 Norte 0 -- -- 61
2019-06-20 07:00:00 19.3 11 Norte 25 Noroeste 0 -- -- 63
2019-06-20 06:00:00 19 11 Norte 25 Norte 0 -- -- 65
2019-06-20 05:00:00 19 13 Norte 27 Norte 0 -- -- 67
2019-06-20 04:00:00 18.5 4 Norte 25 Este 0 -- -- 75
2019-06-20 03:00:00 19 11 Nordeste 26 Este 0 -- -- 73
2019-06-20 02:00:00 19.4 12 Nordeste 23 Noroeste 0 -- -- 73
2019-06-20 01:00:00 20.1 17 Norte 25 Norte 0 -- -- 68
2019-06-20 00:00:00 20.1 7 Norte 20 Norte 0 -- -- 69
2019-06-19 23:00:00 19.7 10 Sur 18 Sur 0 -- -- 80
2019-06-19 22:00:00 20.3 8 Sur 21 Sur 0 -- -- 75
2019-06-19 21:00:00 21.3 15 Sur 24 Sur 0 -- -- 71
2019-06-19 20:00:00 24.4 19 Sur 28 Sur 0 -- -- 62
2019-06-19 19:00:00 26.7 20 Sur 33 Sur 0 -- -- 56
2019-06-19 18:00:00 27.2 14 Sur 30 Norte 0 -- -- 53
2019-06-19 17:00:00 25.8 18 Norte 34 Sur 0 -- -- 46
2019-06-19 16:00:00 28.8 19 Sur 30 Sur 0 -- -- 50
2019-06-19 15:00:00 27.1 20 Sur 31 Sur 0 -- -- 56
2019-06-19 14:00:00 27.1 14 Sur 28 Sur 0 -- -- 57
2019-06-19 13:00:00 25.7 21 Sur 29 Sur 0 -- -- 62
2019-06-19 12:00:00 23.2 21 Sur 28 Sur 0 -- -- 72
2019-06-19 11:00:00 23.2 17 Sur 26 Sur 0 -- -- 68
2019-06-19 10:00:00 22.9 14 Sur 21 Sur 0 -- -- 65
2019-06-19 09:00:00 19.8 7 Nordeste 20 Norte 0 -- -- 69
2019-06-19 08:00:00 19 5 Norte 16 Norte 0 -- -- 76
2019-06-19 07:00:00 18.8 8 Norte 15 Nordeste 0 -- -- 79
2019-06-19 06:00:00 18.8 5 Nordeste 9 Nordeste 0 -- -- 80
2019-06-19 05:00:00 18.7 0 Calma 6 Norte 0 -- -- 81
2019-06-19 04:00:00 18.8 5 Norte 7 Norte 0 -- -- 80
2019-06-19 03:00:00 19 0 Calma 4 Norte 0 -- -- 84
2019-06-19 02:00:00 19.8 2 Sur 14 Nordeste 0 -- -- 82
2019-06-19 01:00:00 20 5 Nordeste 12 Nordeste 0 -- -- 79
2019-06-19 00:00:00 20.5 4 Sur 15 Sur 0 -- -- 82
2019-06-18 23:00:00 21 9 Sur 15 Sur 0 -- -- 80
2019-06-18 22:00:00 21.5 11 Sur 19 Sur 0 -- -- 75
2019-06-18 21:00:00 21.8 15 Sur 21 Sur 0 -- -- 73
2019-06-18 20:00:00 23.1 14 Sur 25 Sur 0 -- -- 68
2019-06-18 19:00:00 25.7 19 Sur 30 Sur 0 -- -- 58
2019-06-18 18:00:00 27.9 23 Sur 32 Sur 0 -- -- 50
2019-06-18 17:00:00 28.3 20 Sur 30 Sur 0 -- -- 48
2019-06-18 16:00:00 28 22 Sur 32 Sur 0 -- -- 51
2019-06-18 15:00:00 28.2 24 Sur 33 Sur 0 -- -- 51
2019-06-18 14:00:00 27.4 24 Sur 31 Sur 0 -- -- 52
2019-06-18 13:00:00 26.7 24 Sur 32 Sur 0 -- -- 55
2019-06-18 12:00:00 26 21 Sur 30 Sur 0 -- -- 55
2019-06-18 11:00:00 24.8 17 Sur 22 Sur 0 -- -- 59
2019-06-18 10:00:00 22 5 Sur 9 Sur 0 -- -- 70
2019-06-18 09:00:00 18.2 0 Calma 4 Norte 0 -- -- 85
2019-06-18 08:00:00 17.4 0 Calma 6 Norte 0 -- -- 85
2019-06-18 07:00:00 17.2 0 Calma 8 Norte 0 -- -- 85
2019-06-18 06:00:00 17.2 5 Norte 9 Nordeste 0 -- -- 84
2019-06-18 05:00:00 17.4 0 Calma 4 Norte 0 -- -- 84
2019-06-18 04:00:00 17.7 0 Calma 3 Noroeste 0 -- -- 84
2019-06-18 03:00:00 17.8 4 Norte 9 Norte 0 -- -- 84
2019-06-18 02:00:00 18.1 5 Norte 7 Norte 0 -- -- 84
2019-06-18 01:00:00 18.7 2 Norte 4 Norte 0 -- -- 84
2019-06-18 00:00:00 19.1 2 Sudoeste 10 Sur 0 -- -- 83
2019-06-17 23:00:00 19.4 9 Sur 14 Sur 0 -- -- 82
2019-06-17 22:00:00 20.1 8 Sur 16 Sur 0 -- -- 78
2019-06-17 21:00:00 21.1 12 Sur 22 Sur 0 -- -- 73
2019-06-17 20:00:00 23.8 16 Sur 26 Sur 0 -- -- 64
2019-06-17 19:00:00 25.2 19 Sur 28 Sur 0 -- -- 58
2019-06-17 18:00:00 26.1 22 Sur 32 Sur 0 -- -- 57
2019-06-17 17:00:00 26.5 22 Sur 39 Sur 0 -- -- 55
2019-06-17 16:00:00 26.8 23 Sur 32 Sur 0 -- -- 52
2019-06-17 15:00:00 26.3 26 Sur 33 Sur 0 -- -- 53
2019-06-17 14:00:00 26.1 23 Sur 31 Sur 0 -- -- 52
2019-06-17 13:00:00 25.7 23 Sur 33 Sur 0 -- -- 54
2019-06-17 12:00:00 24.3 21 Sur 27 Sur 0 -- -- 58
2019-06-17 11:00:00 23 15 Sur 23 Sur 0 -- -- 62
2019-06-17 10:00:00 20.1 3 Este 7 Sudeste 0 -- -- 73
2019-06-17 09:00:00 16.3 0 Calma 6 Norte 0 -- -- 85
2019-06-17 08:00:00 15.6 0 Calma 8 Norte 0 -- -- 84
2019-06-17 07:00:00 15.7 6 Norte 8 Nordeste 0 -- -- 85
2019-06-17 06:00:00 15.7 5 Norte 10 Nordeste 0 -- -- 86
2019-06-17 05:00:00 15.9 5 Nordeste 8 Norte 0 -- -- 85
2019-06-17 04:00:00 16.4 2 Norte 6 Norte 0 -- -- 85
2019-06-17 03:00:00 16.7 0 Calma 8 Norte 0 -- -- 84
2019-06-17 02:00:00 17 3 Norte 9 Sudoeste 0 -- -- 83
2019-06-17 01:00:00 17.6 4 Sur 13 Sudoeste 0 -- -- 81
2019-06-17 00:00:00 18 9 Sur 12 Sur 0 -- -- 80
2019-06-16 23:00:00 18.2 8 Sur 15 Sur 0 -- -- 77
2019-06-16 22:00:00 18.8 7 Sur 17 Sur 0 -- -- 75
2019-06-16 21:00:00 19.4 11 Sur 19 Sur 0 -- -- 72
2019-06-16 20:00:00 20.9 12 Sur 26 Sur 0 -- -- 68
2019-06-16 19:00:00 22.4 19 Sur 27 Sur 0 -- -- 63
2019-06-16 18:00:00 25.4 21 Sur 31 Sur 0 -- -- 54
2019-06-16 17:00:00 25.7 22 Sur 31 Sur 0 -- -- 53
2019-06-16 16:00:00 25.1 22 Sur 30 Sur 0 -- -- 55
2019-06-16 15:00:00 24.6 19 Sur 32 Sur 0 -- -- 56
2019-06-16 14:00:00 24.6 21 Sur 30 Sur 0 -- -- 56
2019-06-16 13:00:00 24.2 20 Sur 36 Sur 0 -- -- 56
2019-06-16 12:00:00 23.6 23 Sur 31 Sur 0 -- -- 58
2019-06-16 11:00:00 22.3 17 Sur 22 Sur 0 -- -- 62
2019-06-16 10:00:00 20 10 Sur 15 Sur 0 -- -- 68
2019-06-16 09:00:00 16.2 0 Calma 10 Norte 0 -- -- 77
2019-06-16 08:00:00 15.9 8 Norte 14 Norte 0 -- -- 79
2019-06-16 07:00:00 15.5 7 Norte 13 Nordeste 0 -- -- 81
2019-06-16 06:00:00 15.7 6 Norte 9 Nordeste 0 -- -- 81
2019-06-16 05:00:00 15.9 5 Nordeste 10 Norte 0 -- -- 81
2019-06-16 04:00:00 16.3 5 Norte 8 Norte 0 -- -- 80
2019-06-16 03:00:00 17.1 6 Sur 13 Sur 0 -- -- 79
2019-06-16 02:00:00 17.7 10 Sur 16 Sur 0 -- -- 76
2019-06-16 01:00:00 18.1 11 Sur 18 Sur 0 -- -- 75
2019-06-16 00:00:00 18.4 10 Sur 17 Sur 0 -- -- 73
2019-06-15 23:00:00 18.7 11 Sur 17 Sur 0 -- -- 72
2019-06-15 22:00:00 19.2 12 Sur 22 Sur 0 -- -- 69
2019-06-15 21:00:00 19.9 13 Sur 25 Sur 0 -- -- 65
2019-06-15 20:00:00 21.9 14 Sur 22 Sur 0 -- -- 58
2019-06-15 19:00:00 22.7 18 Sur 31 Sur 0 -- -- 55
2019-06-15 18:00:00 25.3 22 Sur 32 Sur 0 -- -- 46
2019-06-15 17:00:00 26 21 Sur 34 Sur 0 -- -- 44
2019-06-15 16:00:00 26.2 24 Sur 33 Sur 0 -- -- 42
2019-06-15 15:00:00 25.9 24 Sur 35 Sur 0 -- -- 43
2019-06-15 14:00:00 25.2 23 Sur 32 Sur 0 -- -- 45
2019-06-15 13:00:00 23.6 21 Sur 30 Sur 0 -- -- 49
2019-06-15 12:00:00 22.7 18 Sur 27 Sur 0 -- -- 51
2019-06-15 11:00:00 21.8 14 Sur 21 Sur 0 -- -- 54
2019-06-15 10:00:00 19.3 10 Sur 18 Sudeste 0 -- -- 65
2019-06-15 09:00:00 18.1 6 Sur 12 Sur 0 -- -- 69
2019-06-15 08:00:00 16.3 3 Este 7 Norte 0 -- -- 72
2019-06-15 07:00:00 15.8 0 Calma 7 Norte 0 -- -- 72
2019-06-15 06:00:00 15.4 4 Norte 12 Norte 0 -- -- 72
2019-06-15 05:00:00 15.1 8 Norte 13 Norte 0 -- -- 70
2019-06-15 04:00:00 15 9 Norte 14 Norte 0 -- -- 75
2019-06-15 03:00:00 15.2 6 Norte 11 Norte 0 -- -- 82
2019-06-15 02:00:00 15.8 3 Norte 7 Norte 0 -- -- 81
2019-06-15 01:00:00 15.7 5 Nordeste 8 Norte 0 -- -- 81
2019-06-15 00:00:00 16 4 Nordeste 9 Norte 0 -- -- 80
2019-06-14 23:00:00 16.4 0 Calma 6 Sudoeste 0 -- -- 77
2019-06-14 22:00:00 17.1 5 Sur 17 Sur 0 -- -- 75
2019-06-14 21:00:00 17.9 10 Sur 21 Sur 0 -- -- 73
2019-06-14 20:00:00 19 14 Sur 23 Sur 0 -- -- 71
2019-06-14 19:00:00 20.2 14 Sur 23 Sur 0 -- -- 67
2019-06-14 18:00:00 20.2 16 Sur 22 Sur 0 -- -- 66
2019-06-14 17:00:00 20.1 15 Sur 24 Sur 0 -- -- 64
2019-06-14 16:00:00 20.8 16 Sur 26 Sur 0 -- -- 59
2019-06-14 15:00:00 22.4 18 Sur 25 Sur 0 -- -- 53
2019-06-14 14:00:00 21.7 13 Sur 26 Sur 0 -- -- 54
2019-06-14 13:00:00 22 15 Sur 21 Sur 0 -- -- 53
2019-06-14 12:00:00 20.7 12 Sur 19 Sur 0 -- -- 58
2019-06-14 11:00:00 19.7 14 Sur 21 Sur 0 -- -- 63
2019-06-14 10:00:00 19.8 9 Sur 14 Sur 0 -- -- 63
2019-06-14 09:00:00 16.5 7 Norte 13 Norte 0 -- -- 66
2019-06-14 08:00:00 15.7 9 Norte 12 Norte 0 -- -- 64
2019-06-14 07:00:00 15.6 9 Norte 12 Norte 0 -- -- 66
2019-06-14 06:00:00 16 6 Norte 11 Noroeste 0 -- -- 62
2019-06-14 05:00:00 16.6 4 Norte 12 Norte 0 -- -- 57
2019-06-14 04:00:00 17.7 10 Norte 21 Norte 0 -- -- 53
2019-06-14 03:00:00 17.9 13 Norte 30 Norte 0 -- -- 54
2019-06-14 02:00:00 17.7 8 Nordeste 19 Norte 0 -- -- 58
2019-06-14 01:00:00 17.6 8 Norte 19 Este 0 -- -- 61
2019-06-14 00:00:00 17.7 9 Este 18 Nordeste 0 -- -- 64
2019-06-13 23:00:00 18.1 6 Nordeste 17 Sur 0 -- -- 65
2019-06-13 22:00:00 18.9 12 Sur 23 Sur 0 -- -- 70
2019-06-13 21:00:00 18.8 12 Norte 30 Norte 0 -- -- 63
2019-06-13 20:00:00 20.1 19 Norte 31 Norte 0 -- -- 57
2019-06-13 19:00:00 21.6 18 Norte 32 Norte 0 -- -- 54
2019-06-13 18:00:00 21.6 20 Norte 36 Norte 0 -- -- 54
2019-06-13 17:00:00 21.5 23 Norte 43 Norte 0 -- -- 53
2019-06-13 16:00:00 21.7 24 Norte 40 Norte 0 -- -- 49
2019-06-13 15:00:00 21.6 26 Norte 45 Norte 0 -- -- 49
2019-06-13 14:00:00 20.8 28 Noroeste 42 Noroeste 0 -- -- 51
2019-06-13 13:00:00 21.4 20 Norte 39 Noroeste 0 -- -- 49
2019-06-13 12:00:00 20.6 24 Noroeste 40 Norte 0 -- -- 53
2019-06-13 11:00:00 20.2 24 Norte 35 Noroeste 0 -- -- 54
2019-06-13 10:00:00 18.9 15 Norte 32 Norte 0 -- -- 57
2019-06-13 09:00:00 18 14 Nordeste 44 Norte 0 -- -- 62
2019-06-13 08:00:00 17.5 23 Norte 41 Norte 0 -- -- 58
2019-06-13 07:00:00 17.2 19 Norte 35 Noroeste 0 -- -- 65
2019-06-13 06:00:00 17.1 16 Norte 39 Nordeste 0 -- -- 62
2019-06-13 05:00:00 17.2 17 Norte 38 Norte 0 -- -- 65
2019-06-13 04:00:00 17.7 23 Norte 45 Norte 0 -- -- 61
2019-06-13 03:00:00 17.4 22 Norte 37 Norte 0 -- -- 58
2019-06-13 02:00:00 17.4 20 Norte 54 Norte 0 -- -- 62
2019-06-13 01:00:00 17.8 19 Norte 36 Norte 0 -- -- 59
2019-06-13 00:00:00 18.6 21 Norte 49 Nordeste 0 -- -- 58
2019-06-12 23:00:00 18.9 30 Norte 50 Norte 0 -- -- 57
2019-06-12 22:00:00 18.8 28 Norte 45 Norte 0 -- -- 61
2019-06-12 21:00:00 19.3 18 Norte 43 Norte 0 -- -- 60
2019-06-12 20:00:00 20.2 19 Norte 40 Norte 0 -- -- 63
2019-06-12 19:00:00 21 30 Norte 45 Norte 0 -- -- 59
2019-06-12 18:00:00 21.6 24 Norte 41 Norte 0 -- -- 60
2019-06-12 17:00:00 21.5 26 Norte 45 Noroeste 0 -- -- 60
2019-06-12 16:00:00 21.8 33 Noroeste 54 Noroeste 0 -- -- 53
2019-06-12 15:00:00 22.3 27 Norte 39 Norte 0 -- -- 53
2019-06-12 14:00:00 22.6 23 Norte 44 Noroeste 0 -- -- 55
2019-06-12 13:00:00 21.4 24 Noroeste 47 Noroeste 0 -- -- 60
2019-06-12 12:00:00 20.8 26 Noroeste 40 Norte 0 -- -- 62
2019-06-12 11:00:00 21.2 20 Norte 45 Norte 0 -- -- 63
2019-06-12 10:00:00 20.3 17 Norte 31 Norte 0 -- -- 67
2019-06-12 09:00:00 19.2 15 Norte 31 Norte 0 -- -- 69
2019-06-12 08:00:00 18.6 12 Norte 30 Norte 0 -- -- 71
2019-06-12 07:00:00 18.6 6 Norte 35 Norte 0 -- -- 69
2019-06-12 06:00:00 18.6 20 Norte 42 Noroeste 0 -- -- 70
2019-06-12 05:00:00 18 26 Norte 42 Noroeste 0 -- -- 74
2019-06-12 04:00:00 18.8 13 Norte 33 Norte 0 -- -- 70
2019-06-12 03:00:00 18.4 25 Norte 45 Norte 0 -- -- 74
2019-06-12 02:00:00 18.8 24 Norte 47 Noroeste 0 -- -- 70
2019-06-12 01:00:00 19.7 24 Norte 40 Noroeste 0 -- -- 63
2019-06-12 00:00:00 19.4 22 Norte 42 Noroeste 0 -- -- 66
2019-06-11 23:00:00 19.6 23 Norte 37 Noroeste 0 -- -- 64
2019-06-11 22:00:00 19.3 21 Norte 42 Noroeste 0 -- -- 66
2019-06-11 21:00:00 19.8 24 Norte 41 Norte 0 -- -- 63
2019-06-11 20:00:00 21.2 22 Norte 50 Noroeste 0 -- -- 58
2019-06-11 19:00:00 22.3 25 Norte 48 Noroeste 0 -- -- 55
2019-06-11 18:00:00 23.1 24 Norte 52 Noroeste 0 -- -- 55
2019-06-11 17:00:00 23.5 19 Norte 48 Noroeste 0 -- -- 56
2019-06-11 16:00:00 23.9 22 Noroeste 46 Noroeste 0 -- -- 54
2019-06-11 15:00:00 24.1 24 Norte 53 Norte 0 -- -- 51
2019-06-11 14:00:00 22.5 31 Norte 48 Noroeste 0 -- -- 60
2019-06-11 13:00:00 22.7 19 Norte 45 Noroeste 0 -- -- 56
2019-06-11 12:00:00 23 22 Norte 46 Noroeste 0 -- -- 53
2019-06-11 11:00:00 21.5 22 Norte 42 Norte 0 -- -- 54
2019-06-11 10:00:00 20.5 26 Norte 45 Norte 0 -- -- 55
2019-06-11 09:00:00 18.5 29 Norte 51 Norte 0 -- -- 65
2019-06-11 08:00:00 18.1 26 Norte 56 Norte 0 -- -- 65
2019-06-11 07:00:00 18.1 35 Norte 55 Norte 0 -- -- 67
2019-06-11 06:00:00 17.5 30 Norte 46 Norte 0 -- -- 66
2019-06-11 05:00:00 17.7 28 Norte 47 Norte 0 -- -- 66
2019-06-11 04:00:00 17.7 35 Norte 54 Norte 0 -- -- 66
2019-06-11 03:00:00 17.9 27 Norte 45 Norte 0 -- -- 64
2019-06-11 02:00:00 18.3 25 Norte 41 Norte 0 -- -- 60
2019-06-11 01:00:00 18.4 27 Norte 46 Norte 0 -- -- 60
2019-06-11 00:00:00 18.6 30 Norte 47 Norte 0 -- -- 62
2019-06-10 23:00:00 19.1 21 Norte 32 Norte 0 -- -- 58
2019-06-10 22:00:00 19 14 Norte 30 Nordeste 0 -- -- 63
2019-06-10 21:00:00 19.7 15 Norte 37 Norte 0 -- -- 63
2019-06-10 20:00:00 21.3 18 Norte 32 Norte 0 -- -- 57
2019-06-10 19:00:00 22.9 12 Norte 28 Norte 0 -- -- 51
2019-06-10 18:00:00 24.8 8 Oeste 29 Norte 0 -- -- 44
2019-06-10 17:00:00 24.1 9 Norte 39 Norte 0 -- -- 50
2019-06-10 16:00:00 23.3 24 Noroeste 46 Norte 0 -- -- 51
2019-06-10 15:00:00 22.8 23 Norte 38 Norte 0 -- -- 52
2019-06-10 14:00:00 24.5 13 Noroeste 32 Sur 0 -- -- 50
2019-06-10 13:00:00 25.1 21 Sur 30 Sur 0 -- -- 55
2019-06-10 12:00:00 24.2 20 Sur 27 Sur 0 -- -- 57
2019-06-10 11:00:00 21.6 14 Sur 31 Noroeste 0 -- -- 66
2019-06-10 10:00:00 20 15 Norte 34 Norte 0 -- -- 57
2019-06-10 09:00:00 18.5 12 Noroeste 33 Norte 0 -- -- 61
2019-06-10 08:00:00 17.2 8 Sudeste 21 Sur 0 -- -- 65
2019-06-10 07:00:00 17 14 Norte 22 Norte 0 -- -- 69
2019-06-10 06:00:00 17.2 10 Nordeste 25 Norte 0 -- -- 66
2019-06-10 05:00:00 17.8 12 Nordeste 27 Nordeste 0 -- -- 63
2019-06-10 04:00:00 17.4 13 Nordeste 23 Nordeste 0 -- -- 69
2019-06-10 03:00:00 17.3 9 Nordeste 16 Nordeste 0 -- -- 69
2019-06-10 02:00:00 17.7 3 Este 15 Nordeste 0 -- -- 69
2019-06-10 01:00:00 18 5 Nordeste 16 Nordeste 0 -- -- 67
2019-06-10 00:00:00 18.2 9 Nordeste 26 Norte 0 -- -- 65
2019-06-09 23:00:00 18.3 15 Nordeste 26 Nordeste 0 -- -- 65
2019-06-09 22:00:00 18.5 15 Nordeste 27 Nordeste 0 -- -- 63
2019-06-09 21:00:00 19.3 14 Nordeste 27 Norte 0 -- -- 60
2019-06-09 20:00:00 21.3 13 Norte 26 Sur 0 -- -- 54
2019-06-09 19:00:00 25.7 17 Sur 27 Sur 0 -- -- 48
2019-06-09 18:00:00 26.7 21 Sur 28 Sur 0 -- -- 44
2019-06-09 17:00:00 27.4 22 Sur 31 Sur 0 -- -- 43
2019-06-09 16:00:00 27.1 23 Sur 33 Sur 0 -- -- 44
2019-06-09 15:00:00 26.8 19 Sur 31 Sur 0 -- -- 44
2019-06-09 14:00:00 26.6 20 Sur 28 Sur 0 -- -- 45
2019-06-09 13:00:00 25.3 18 Sur 29 Sur 0 -- -- 47
2019-06-09 12:00:00 24.1 19 Sur 30 Sur 0 -- -- 50
2019-06-09 11:00:00 22.3 21 Sur 26 Sur 0 -- -- 53
2019-06-09 10:00:00 19.2 10 Norte 19 Nordeste 0 -- -- 57
2019-06-09 09:00:00 17 9 Nordeste 20 Nordeste 0 -- -- 64
2019-06-09 08:00:00 16.8 12 Nordeste 19 Nordeste 0 -- -- 64
2019-06-09 07:00:00 16.7 9 Nordeste 17 Nordeste 0 -- -- 64
2019-06-09 06:00:00 17.1 8 Nordeste 19 Nordeste 0 -- -- 61
2019-06-09 05:00:00 17.4 11 Nordeste 19 Nordeste 0 -- -- 60
2019-06-09 04:00:00 17.3 12 Nordeste 20 Norte 0 -- -- 60
2019-06-09 03:00:00 17.8 10 Norte 17 Norte 0 -- -- 60
2019-06-09 02:00:00 17.9 10 Nordeste 19 Nordeste 0 -- -- 60
2019-06-09 01:00:00 17.8 13 Nordeste 22 Norte 0 -- -- 62
2019-06-09 00:00:00 18 13 Nordeste 19 Nordeste 0 -- -- 62
2019-06-08 23:00:00 18.1 7 Nordeste 23 Norte 0 -- -- 65
2019-06-08 22:00:00 18.5 11 Norte 30 Norte 0 -- -- 64
2019-06-08 21:00:00 19.5 19 Norte 36 Norte 0 -- -- 63
2019-06-08 20:00:00 20.3 25 Norte 44 Norte 0 -- -- 58
2019-06-08 19:00:00 21.4 23 Norte 50 Norte 0 -- -- 57
2019-06-08 18:00:00 21.5 28 Norte 57 Norte 0 -- -- 55
2019-06-08 17:00:00 21.6 37 Norte 54 Norte 0 -- -- 52
2019-06-08 16:00:00 22.2 30 Norte 45 Norte 0 -- -- 54
2019-06-08 15:00:00 21.9 27 Norte 45 Norte 0 -- -- 58
2019-06-08 14:00:00 22.8 19 Noroeste 34 Sur 0 -- -- 54
2019-06-08 13:00:00 25 23 Sur 32 Sur 0 -- -- 59
2019-06-08 12:00:00 23 23 Sur 30 Sur 0 -- -- 68
2019-06-08 11:00:00 21.7 19 Sur 25 Sur 0 -- -- 73
2019-06-08 10:00:00 20.8 15 Sur 20 Sur 0 -- -- 76
2019-06-08 09:00:00 17.2 2 Sudeste 6 Sur 0 -- -- 84
2019-06-08 08:00:00 16.6 4 Norte 9 Norte 0 -- -- 84
2019-06-08 07:00:00 16.5 5 Norte 9 Norte 0 -- -- 82
2019-06-08 06:00:00 16.7 3 Nordeste 8 Norte 0 -- -- 80
2019-06-08 05:00:00 17.5 4 Nordeste 8 Norte 0 -- -- 78
2019-06-08 04:00:00 17.8 2 Noroeste 6 Nordeste 0 -- -- 76
2019-06-08 03:00:00 18.1 2 Oeste 15 Sur 0 -- -- 76
2019-06-08 02:00:00 18.9 8 Sur 24 Norte 0 -- -- 73
2019-06-08 01:00:00 18.9 6 Sur 15 Sur 0 -- -- 73
2019-06-08 00:00:00 19.2 10 Nordeste 22 Norte 0 -- -- 71
2019-06-07 23:00:00 19.2 10 Nordeste 21 Norte 0 -- -- 73
2019-06-07 22:00:00 19.5 12 Norte 22 Norte 0 -- -- 70
2019-06-07 21:00:00 20.9 11 Sur 23 Sur 0 -- -- 69
2019-06-07 20:00:00 23.5 14 Sur 23 Sur 0 -- -- 61
2019-06-07 19:00:00 22 16 Norte 30 Noroeste 0 -- -- 62
2019-06-07 18:00:00 24.4 17 Sur 35 Sur 0 -- -- 58
2019-06-07 17:00:00 25.4 19 Sur 36 Sur 0 -- -- 53
2019-06-07 16:00:00 27.6 26 Sur 32 Sur 0 -- -- 43
2019-06-07 15:00:00 27.6 22 Sur 32 Sur 0 -- -- 45
2019-06-07 14:00:00 26.2 19 Sur 35 Sur 0 -- -- 49
2019-06-07 13:00:00 25 22 Sur 32 Sur 0 -- -- 51
2019-06-07 12:00:00 24 22 Sur 32 Sur 0 -- -- 54
2019-06-07 11:00:00 20.7 14 Norte 28 Noroeste 0 -- -- 57
2019-06-07 10:00:00 19.3 13 Norte 29 Norte 0 -- -- 63
2019-06-07 09:00:00 17.3 7 Nordeste 22 Norte 0 -- -- 68
2019-06-07 08:00:00 17.1 5 Sudeste 22 Norte 0 -- -- 68
2019-06-07 07:00:00 17.4 17 Norte 31 Norte 0 -- -- 68
2019-06-07 06:00:00 17.4 6 Sudeste 39 Norte 0 -- -- 62
2019-06-07 05:00:00 17.6 10 Norte 29 Norte 0 -- -- 58
2019-06-07 04:00:00 17.1 9 Nordeste 39 Norte 0 -- -- 59
2019-06-07 03:00:00 17.7 21 Norte 39 Norte 0 -- -- 59
2019-06-07 02:00:00 18.1 25 Norte 46 Norte 0 -- -- 60
2019-06-07 01:00:00 18 24 Norte 44 Norte 0 -- -- 55
2019-06-07 00:00:00 17.8 16 Norte 43 Norte 0 -- -- 57
2019-06-06 23:00:00 17.9 23 Norte 37 Norte 0 -- -- 57
2019-06-06 22:00:00 18 16 Norte 33 Norte 0 -- -- 58
2019-06-06 21:00:00 18.7 18 Norte 34 Norte 0 -- -- 54
2019-06-06 20:00:00 19.9 23 Norte 46 Norte 0 -- -- 48
2019-06-06 19:00:00 20.8 27 Norte 44 Norte 0 -- -- 47
2019-06-06 18:00:00 21.1 28 Norte 43 Norte 0 -- -- 51
2019-06-06 17:00:00 20.6 24 Norte 45 Norte 0 -- -- 58
2019-06-06 16:00:00 20.9 30 Norte 46 Norte 0 -- -- 59
2019-06-06 15:00:00 22 28 Norte 53 Noroeste 0 -- -- 54
2019-06-06 14:00:00 21.5 33 Norte 50 Noroeste 0 -- -- 50
2019-06-06 13:00:00 21.6 30 Noroeste 52 Noroeste 0 -- -- 47
2019-06-06 12:00:00 20.4 33 Norte 49 Norte 0 -- -- 56
2019-06-06 11:00:00 19.5 24 Norte 37 Noroeste 0 -- -- 60
2019-06-06 10:00:00 19.5 15 Norte 33 Norte 0 -- -- 52
2019-06-06 09:00:00 18.1 21 Norte 33 Norte 0 -- -- 61
2019-06-06 08:00:00 17.4 21 Norte 35 Norte 0 -- -- 62
2019-06-06 07:00:00 17.6 18 Norte 40 Norte 0 -- -- 62
2019-06-06 06:00:00 17.6 20 Norte 39 Norte 0 -- -- 62
2019-06-06 05:00:00 17.7 20 Norte 45 Noroeste 0 -- -- 63
2019-06-06 04:00:00 18.2 24 Norte 40 Norte 0 -- -- 63
2019-06-06 03:00:00 18.5 22 Norte 32 Norte 0 -- -- 63
2019-06-06 02:00:00 18.5 18 Norte 27 Norte 0 -- -- 67
2019-06-06 01:00:00 18.8 8 Norte 25 Norte 0 -- -- 64
2019-06-06 00:00:00 18.7 18 Norte 31 Norte 0 -- -- 68
2019-06-05 23:00:00 18.9 21 Norte 32 Norte 0 -- -- 69
2019-06-05 22:00:00 19.3 18 Norte 39 Norte 0 -- -- 69
2019-06-05 21:00:00 20.3 18 Norte 47 Norte 0 -- -- 62
2019-06-05 20:00:00 21 24 Norte 41 Norte 0 -- -- 60
2019-06-05 19:00:00 21.5 18 Noroeste 48 Norte 0 -- -- 62
2019-06-05 18:00:00 21.4 30 Norte 42 Norte 0 -- -- 63
2019-06-05 17:00:00 22.8 24 Norte 46 Noroeste 0 -- -- 60
2019-06-05 16:00:00 23 27 Norte 43 Norte 0 -- -- 60
2019-06-05 15:00:00 22.8 29 Norte 42 Norte 0 -- -- 59
2019-06-05 14:00:00 27.4 23 Sur 32 Sur 0 -- -- 49
2019-06-05 13:00:00 25.5 18 Sur 32 Sur 0 -- -- 58
2019-06-05 12:00:00 26 22 Sur 30 Sur 0 -- -- 57
2019-06-05 11:00:00 24 21 Sur 30 Sur 0 -- -- 61
2019-06-05 10:00:00 22 18 Sur 30 Sur 0 -- -- 71
2019-06-05 09:00:00 18.7 15 Sur 20 Sur 0 -- -- 79
2019-06-05 08:00:00 17.7 7 Sur 10 Sur 0 -- -- 84
2019-06-05 07:00:00 17.9 0 Calma 13 Sur 0 -- -- 81
2019-06-05 06:00:00 18.6 6 Sur 21 Oeste 0 -- -- 75
2019-06-05 05:00:00 19.8 10 Norte 27 Norte 0 -- -- 69
2019-06-05 04:00:00 19.4 9 Norte 32 Norte 0 -- -- 67
2019-06-05 03:00:00 19.1 19 Norte 33 Noroeste 0 -- -- 69
2019-06-05 02:00:00 19.3 14 Nordeste 33 Este 0 -- -- 71
2019-06-05 01:00:00 20.5 17 Este 40 Este 0 -- -- 61
2019-06-05 00:00:00 22.2 15 Este 42 Este 0 -- -- 46
2019-06-04 23:00:00 21.6 16 Este 30 Este 0 -- -- 52
2019-06-04 22:00:00 22.6 10 Nordeste 23 Nordeste 0 -- -- 45
2019-06-04 21:00:00 22.3 8 Nordeste 25 Nordeste 0 -- -- 55
2019-06-04 20:00:00 24.6 17 Nordeste 32 Nordeste 0 -- -- 51
2019-06-04 19:00:00 25.8 17 Nordeste 30 Nordeste 0 -- -- 48
2019-06-04 18:00:00 31.7 9 Sudoeste 24 Sur 0 -- -- 27
2019-06-04 17:00:00 31.8 20 Sur 30 Sur 0 -- -- 29
2019-06-04 16:00:00 31.7 22 Sur 32 Sur 0 -- -- 33
2019-06-04 15:00:00 31.6 22 Sur 30 Sur 0 -- -- 32
2019-06-04 14:00:00 30.5 21 Sur 28 Sur 0 -- -- 39
2019-06-04 13:00:00 29.2 19 Sur 29 Sur 0 -- -- 44
2019-06-04 12:00:00 28.6 17 Sur 24 Sur 0 -- -- 51
2019-06-04 11:00:00 27.3 17 Sur 24 Sur 0 -- -- 48
2019-06-04 10:00:00 25.4 9 Sur 14 Sur 0 -- -- 48
2019-06-04 09:00:00 21.8 0 Calma 7 Norte 0 -- -- 53
2019-06-04 08:00:00 21 4 Norte 8 Norte 0 -- -- 51
2019-06-04 07:00:00 21.3 0 Calma 5 Sur 0 -- -- 47
2019-06-04 06:00:00 22.5 0 Calma 12 Sur 0 -- -- 40
2019-06-04 05:00:00 24.5 6 Sudoeste 27 Norte 0 -- -- 41
2019-06-04 04:00:00 22.6 8 Norte 18 Norte 0 -- -- 46
2019-06-04 03:00:00 21.4 4 Sur 10 Sur 0 -- -- 60
2019-06-04 02:00:00 21.4 3 Norte 8 Norte 0 -- -- 62
2019-06-04 01:00:00 21.9 2 Sudeste 6 Nordeste 0 -- -- 63
2019-06-04 00:00:00 22.8 4 Sur 6 Este 0 -- -- 61
2019-06-03 23:00:00 23.1 2 Sur 6 Nordeste 0 -- -- 62
2019-06-03 22:00:00 22.8 2 Norte 10 Sudoeste 0 -- -- 63
2019-06-03 21:00:00 24 8 Sur 15 Sur 0 -- -- 61
2019-06-03 20:00:00 27.2 9 Sudoeste 20 Sur 0 -- -- 51
2019-06-03 19:00:00 29.6 14 Sur 25 Sudoeste 0 -- -- 45
2019-06-03 18:00:00 31.4 17 Sur 30 Sur 0 -- -- 39
2019-06-03 17:00:00 33.2 19 Sur 30 Sur 0 -- -- 33
2019-06-03 16:00:00 34.3 19 Sur 29 Sur 0 -- -- 28
2019-06-03 15:00:00 33.5 23 Sur 31 Sur 0 -- -- 27
2019-06-03 14:00:00 32.9 22 Sur 30 Sur 0 -- -- 29
2019-06-03 13:00:00 31.5 22 Sur 31 Sur 0 -- -- 34
2019-06-03 12:00:00 32.1 15 Sur 23 Sur 0 -- -- 34
2019-06-03 11:00:00 30.6 11 Sur 15 Sur 0 -- -- 39
2019-06-03 10:00:00 27.3 5 Sur 10 Sur 0 -- -- 37
2019-06-03 09:00:00 26.1 2 Nordeste 6 Sur 0 -- -- 31
2019-06-03 08:00:00 25 4 Norte 8 Norte 0 -- -- 27
2019-06-03 07:00:00 23.9 2 Nordeste 9 Norte 0 -- -- 32
2019-06-03 06:00:00 21.8 0 Calma 8 Sur 0 -- -- 54
2019-06-03 05:00:00 23.3 5 Norte 10 Nordeste 0 -- -- 38
2019-06-03 04:00:00 23.1 2 Norte 8 Norte 0 -- -- 42
2019-06-03 03:00:00 23.7 2 Norte 9 Norte 0 -- -- 44
2019-06-03 02:00:00 22.6 4 Norte 11 Norte 0 -- -- 54
2019-06-03 01:00:00 20.4 2 Norte 8 Sur 0 -- -- 81
2019-06-03 00:00:00 20.4 6 Este 12 Norte 0 -- -- 83
2019-06-02 23:00:00 21.2 6 Sur 12 Sur 0 -- -- 78
2019-06-02 22:00:00 22.5 5 Sur 14 Sur 0 -- -- 74
2019-06-02 21:00:00 22.9 5 Sur 14 Sudoeste 0 -- -- 71
2019-06-02 20:00:00 25.9 9 Sudoeste 17 Sur 0 -- -- 61
2019-06-02 19:00:00 29.2 12 Sudoeste 27 Sur 0 -- -- 52
2019-06-02 18:00:00 31 16 Sur 24 Sur 0 -- -- 46
2019-06-02 17:00:00 31.4 17 Sur 26 Sur 0 -- -- 46
2019-06-02 16:00:00 31.7 17 Sur 23 Sudoeste 0 -- -- 45
2019-06-02 15:00:00 31.2 19 Sur 26 Sur 0 -- -- 48
2019-06-02 14:00:00 29.3 18 Sur 24 Sur 0 -- -- 55
2019-06-02 13:00:00 27.5 17 Sur 24 Sur 0 -- -- 60
2019-06-02 12:00:00 26.8 15 Sur 22 Sur 0 -- -- 62
2019-06-02 11:00:00 26 15 Sur 21 Sudoeste 0 -- -- 62
2019-06-02 10:00:00 22.9 2 Sur 8 Sur 0 -- -- 62
2019-06-02 09:00:00 21 6 Sur 12 Norte 0 -- -- 67
2019-06-02 08:00:00 21.7 6 Norte 8 Norte 0 -- -- 43
2019-06-02 07:00:00 20.4 3 Norte 9 Norte 0 -- -- 51
2019-06-02 06:00:00 20.1 0 Calma 9 Norte 0 -- -- 48
2019-06-02 05:00:00 19.1 0 Calma 6 Norte 0 -- -- 63
2019-06-02 04:00:00 17.6 0 Calma 5 Nordeste 0 -- -- 83
2019-06-02 03:00:00 17.8 0 Calma 8 Norte 0 -- -- 87
2019-06-02 02:00:00 17.8 4 Norte 6 Norte 0 -- -- 87
2019-06-02 01:00:00 18.5 6 Sur 12 Sur 0 -- -- 85
2019-06-02 00:00:00 19 5 Sur 9 Sur 0 -- -- 82
2019-06-01 23:00:00 19.6 0 Calma 12 Sur 0 -- -- 78
2019-06-01 22:00:00 20.8 10 Sur 15 Sur 0 -- -- 73
2019-06-01 21:00:00 22.9 4 Sur 13 Sur 0 -- -- 66
2019-06-01 20:00:00 25.8 9 Sudoeste 22 Sur 0 -- -- 57
2019-06-01 19:00:00 28.3 17 Sur 24 Sur 0 -- -- 51
2019-06-01 18:00:00 29.6 17 Sur 24 Sur 0 -- -- 49
2019-06-01 17:00:00 28.2 18 Sur 31 Sur 0 -- -- 52
2019-06-01 16:00:00 28 23 Sur 30 Sur 0 -- -- 52
2019-06-01 15:00:00 27.3 22 Sur 30 Sur 0 -- -- 54
2019-06-01 14:00:00 26.2 23 Sur 33 Sur 0 -- -- 57
2019-06-01 13:00:00 26 23 Sur 30 Sur 0 -- -- 57
2019-06-01 12:00:00 25 19 Sur 26 Sur 0 -- -- 61
2019-06-01 11:00:00 23.3 18 Sur 24 Sur 0 -- -- 68
2019-06-01 10:00:00 21.6 13 Sur 18 Sur 0 -- -- 74
2019-06-01 09:00:00 18.5 5 Sur 15 Sudoeste 0 -- -- 78
2019-06-01 08:00:00 18.9 2 Nordeste 13 Norte 0 -- -- 68
2019-06-01 07:00:00 17 4 Norte 9 Norte 0 -- -- 83
2019-06-01 06:00:00 16.7 0 Calma 6 Norte 0 -- -- 84
2019-06-01 05:00:00 17.1 2 Nordeste 9 Norte 0 -- -- 83
2019-06-01 04:00:00 17.5 8 Norte 14 Norte 0 -- -- 83
2019-06-01 03:00:00 18.5 5 Norte 10 Norte 0 -- -- 82
2019-06-01 02:00:00 19 5 Sur 13 Sur 0 -- -- 85
2019-06-01 01:00:00 18.9 9 Sur 13 Sur 0 -- -- 86
2019-06-01 00:00:00 18.7 3 Sur 10 Sur 0 -- -- 87
2019-05-31 23:00:00 18.7 6 Sur 12 Sur 0 -- -- 85
2019-05-31 22:00:00 19.2 7 Sur 14 Sur 0 -- -- 81
2019-05-31 21:00:00 20.5 9 Sur 19 Sur 0 -- -- 74
2019-05-31 20:00:00 23.7 12 Sur 28 Sur 0 -- -- 65
2019-05-31 19:00:00 25.2 20 Sur 27 Sur 0 -- -- 61
2019-05-31 18:00:00 26.6 17 Sur 28 Sur 0 -- -- 58
2019-05-31 17:00:00 26.8 21 Sur 30 Sur 0 -- -- 57
2019-05-31 16:00:00 26.2 19 Sur 27 Sur 0 -- -- 59
2019-05-31 15:00:00 25.3 21 Sur 35 Sur 0 -- -- 61
2019-05-31 14:00:00 26.6 20 Sur 33 Sur 0 -- -- 57
2019-05-31 13:00:00 27.7 21 Sur 30 Sur 0 -- -- 49
2019-05-31 12:00:00 27 14 Sur 21 Sur 0 -- -- 52
2019-05-31 11:00:00 25.3 11 Sur 15 Sur 0 -- -- 57
2019-05-31 10:00:00 21 7 Sur 12 Sur 0 -- -- 73
2019-05-31 09:00:00 17.2 5 Sur 9 Sur 0 -- -- 75
2019-05-31 08:00:00 16 0 Calma 5 Norte 0 -- -- 73
2019-05-31 07:00:00 16.2 0 Calma 10 Sur 0 -- -- 79
2019-05-31 06:00:00 16 2 Nordeste 7 Nordeste 0 -- -- 84
2019-05-31 05:00:00 16.1 4 Norte 7 Norte 0 -- -- 86
2019-05-31 04:00:00 16.5 0 Calma 5 Norte 0 -- -- 85
2019-05-31 03:00:00 16.7 0 Calma 6 Norte 0 -- -- 86
2019-05-31 02:00:00 17.4 0 Calma 4 Sur 0 -- -- 86
2019-05-31 01:00:00 17.8 2 Sudoeste 11 Sur 0 -- -- 84
2019-05-31 00:00:00 18.7 7 Sur 10 Sur 0 -- -- 78
2019-05-30 23:00:00 19.6 9 Norte 18 Norte 0 -- -- 69
2019-05-30 22:00:00 19.7 4 Sur 24 Norte 0 -- -- 73
2019-05-30 21:00:00 20.6 16 Norte 28 Norte 0 -- -- 66
2019-05-30 20:00:00 23.8 12 Sur 22 Sur 0 -- -- 61
2019-05-30 19:00:00 25.2 18 Sur 26 Sur 0 -- -- 58
2019-05-30 18:00:00 25.9 19 Sur 29 Sur 0 -- -- 55
2019-05-30 17:00:00 26.5 21 Sur 39 Sur 0 -- -- 54
2019-05-30 16:00:00 26.2 23 Sur 32 Sur 0 -- -- 55
2019-05-30 15:00:00 26.2 22 Sur 31 Sur 0 -- -- 55
2019-05-30 14:00:00 25.4 22 Sur 31 Sur 0 -- -- 57
2019-05-30 13:00:00 25.4 21 Sur 31 Sur 0 -- -- 57
2019-05-30 12:00:00 24.2 21 Sur 29 Sur 0 -- -- 60
2019-05-30 11:00:00 23.4 14 Sur 23 Sur 0 -- -- 61
2019-05-30 10:00:00 20.5 3 Sudeste 8 Este 0 -- -- 71
2019-05-30 09:00:00 15.8 0 Calma 8 Norte 0 -- -- 86
2019-05-30 08:00:00 15.1 4 Nordeste 9 Norte 0 -- -- 84
2019-05-30 07:00:00 15.4 8 Norte 11 Norte 0 -- -- 83
2019-05-30 06:00:00 15.8 8 Norte 10 Norte 0 -- -- 82
2019-05-30 05:00:00 16 4 Nordeste 6 Nordeste 0 -- -- 80
2019-05-30 04:00:00 16.5 4 Nordeste 16 Norte 0 -- -- 81
2019-05-30 03:00:00 16.9 4 Norte 17 Sur 0 -- -- 85
2019-05-30 02:00:00 17.3 3 Este 13 Noroeste 0 -- -- 78
2019-05-30 01:00:00 17.5 2 Sudeste 16 Norte 0 -- -- 80
2019-05-30 00:00:00 18.2 3 Sudoeste 24 Norte 0 -- -- 76
2019-05-29 23:00:00 18.4 14 Norte 23 Norte 0 -- -- 73
2019-05-29 22:00:00 18.4 14 Nordeste 23 Nordeste 0 -- -- 73
2019-05-29 21:00:00 19.6 8 Sur 20 Sur 0 -- -- 73
2019-05-29 20:00:00 22.4 13 Sur 24 Sur 0 -- -- 64
2019-05-29 19:00:00 24.5 17 Sur 29 Sur 0 -- -- 59
2019-05-29 18:00:00 25.7 20 Sur 31 Sur 0 -- -- 55
2019-05-29 17:00:00 27.3 22 Sur 33 Sur 0 -- -- 49
2019-05-29 16:00:00 27.4 25 Sur 35 Sur 0 -- -- 49
2019-05-29 15:00:00 27.5 24 Sur 33 Sur 0 -- -- 49
2019-05-29 14:00:00 27.4 12 Sur 28 Sur 0 -- -- 49
2019-05-29 13:00:00 25.4 17 Sur 29 Sur 0 -- -- 55
2019-05-29 12:00:00 23.9 19 Sur 27 Sur 0 -- -- 60
2019-05-29 11:00:00 22.8 21 Sur 25 Sur 0 -- -- 65
2019-05-29 10:00:00 19.5 4 Nordeste 11 Nordeste 0 -- -- 73
2019-05-29 09:00:00 16.9 8 Nordeste 13 Nordeste 0 -- -- 78
2019-05-29 08:00:00 16 2 Nordeste 13 Norte 0 -- -- 79
2019-05-29 07:00:00 15.9 5 Norte 10 Norte 0 -- -- 78
2019-05-29 06:00:00 15.9 5 Nordeste 10 Norte 0 -- -- 80
2019-05-29 05:00:00 16.2 0 Calma 7 Nordeste 0 -- -- 79
2019-05-29 04:00:00 16.6 3 Norte 19 Norte 0 -- -- 78
2019-05-29 03:00:00 16.9 8 Norte 16 Norte 0 -- -- 79
2019-05-29 02:00:00 17.4 8 Norte 12 Norte 0 -- -- 78
2019-05-29 01:00:00 17.8 0 Calma 14 Sudoeste 0 -- -- 79
2019-05-29 00:00:00 18.6 7 Oeste 17 Noroeste 0 -- -- 75
2019-05-28 23:00:00 19.2 4 Nordeste 21 Norte 0 -- -- 71
2019-05-28 22:00:00 19.7 14 Norte 21 Norte 0 -- -- 68
2019-05-28 21:00:00 20.2 17 Norte 33 Nordeste 0 -- -- 67
2019-05-28 20:00:00 21.1 22 Nordeste 32 Nordeste 0 -- -- 66
2019-05-28 19:00:00 23.5 17 Nordeste 25 Nordeste 0 -- -- 58
2019-05-28 18:00:00 26 20 Sur 32 Sur 0 -- -- 57
2019-05-28 17:00:00 26.8 24 Sur 36 Sur 0 -- -- 55
2019-05-28 16:00:00 27.4 24 Sur 33 Sur 0 -- -- 54
2019-05-28 15:00:00 28.1 22 Sur 30 Sur 0 -- -- 52
2019-05-28 14:00:00 27.3 19 Sur 29 Sur 0 -- -- 55
2019-05-28 13:00:00 26.5 20 Sur 33 Sur 0 -- -- 58
2019-05-28 12:00:00 25.3 17 Sur 28 Sur 0 -- -- 62
2019-05-28 11:00:00 23.9 13 Sur 19 Sur 0 -- -- 67
2019-05-28 10:00:00 21.1 13 Sur 17 Sur 0 -- -- 73
2019-05-28 09:00:00 17.5 4 Sur 11 Sur 0 -- -- 86
2019-05-28 08:00:00 17.5 7 Sur 20 Norte 0 -- -- 78
2019-05-28 07:00:00 17.2 7 Norte 14 Norte 0 -- -- 85
2019-05-28 06:00:00 17.5 0 Calma 6 Sudeste 0 -- -- 86
2019-05-28 05:00:00 17.7 4 Sur 18 Norte 0 -- -- 78
2019-05-28 04:00:00 18.2 0 Calma 22 Norte 0 -- -- 83
2019-05-28 03:00:00 18.2 11 Norte 24 Norte 0 -- -- 75
2019-05-28 02:00:00 19.3 3 Sur 22 Norte 0 -- -- 75
2019-05-28 01:00:00 19.5 14 Norte 24 Norte 0 -- -- 66
2019-05-28 00:00:00 19.7 13 Norte 21 Norte 0 -- -- 65
2019-05-27 23:00:00 20.1 6 Norte 12 Norte 0 -- -- 65
2019-05-27 22:00:00 20.4 11 Norte 20 Nordeste 0 -- -- 64
2019-05-27 21:00:00 21.5 13 Norte 19 Norte 0 -- -- 61
2019-05-27 20:00:00 25.3 5 Noroeste 18 Sur 0 -- -- 48
2019-05-27 19:00:00 24.6 13 Nordeste 37 Norte 0 -- -- 57
2019-05-27 18:00:00 23.7 27 Nordeste 39 Nordeste 0 -- -- 61
2019-05-27 17:00:00 24.3 26 Nordeste 36 Nordeste 0 -- -- 59
2019-05-27 16:00:00 29.9 12 Sudoeste 31 Sur 0 -- -- 36
2019-05-27 15:00:00 28.7 23 Sur 32 Sur 0 -- -- 38
2019-05-27 14:00:00 29.5 22 Sur 29 Sur 0 -- -- 35
2019-05-27 13:00:00 28.9 22 Sur 31 Sur 0 -- -- 38
2019-05-27 12:00:00 28.3 15 Sur 21 Sur 0 -- -- 43
2019-05-27 11:00:00 26.5 12 Sur 17 Sur 0 -- -- 42
2019-05-27 10:00:00 22.5 5 Sur 9 Sudoeste 0 -- -- 49
2019-05-27 09:00:00 18.6 0 Calma 6 Sur 0 -- -- 56
2019-05-27 08:00:00 18.2 4 Sur 12 Nordeste 0 -- -- 57
2019-05-27 07:00:00 19 9 Nordeste 13 Norte 0 -- -- 54
2019-05-27 06:00:00 18.4 9 Nordeste 17 Norte 0 -- -- 60
2019-05-27 05:00:00 18 12 Norte 19 Norte 0 -- -- 70
2019-05-27 04:00:00 17.9 13 Norte 17 Norte 0 -- -- 72
2019-05-27 03:00:00 18 12 Norte 25 Nordeste 0 -- -- 73
2019-05-27 02:00:00 18.4 14 Norte 26 Norte 0 -- -- 72
2019-05-27 01:00:00 18.6 10 Norte 20 Norte 0 -- -- 72
2019-05-27 00:00:00 18.8 7 Sur 22 Norte 0 -- -- 78
2019-05-26 23:00:00 18.7 11 Norte 19 Norte 0 -- -- 76
2019-05-26 22:00:00 19.7 11 Sur 18 Sur 0 -- -- 76
2019-05-26 21:00:00 21.2 5 Sur 19 Sudoeste 0 -- -- 72
2019-05-26 20:00:00 24 15 Sur 25 Sur 0 -- -- 62
2019-05-26 19:00:00 27.6 19 Sur 26 Sur 0 -- -- 44
2019-05-26 18:00:00 28.6 16 Sur 28 Sur 0 -- -- 41
2019-05-26 17:00:00 28.4 19 Sur 26 Nordeste 0 -- -- 40
2019-05-26 16:00:00 28.4 6 Sur 29 Nordeste 0 -- -- 41
2019-05-26 15:00:00 24.9 21 Nordeste 32 Nordeste 0 -- -- 52
2019-05-26 14:00:00 25.3 14 Nordeste 26 Nordeste 0 -- -- 51
2019-05-26 13:00:00 26.8 20 Sur 29 Sur 0 -- -- 44
2019-05-26 12:00:00 24.8 9 Sur 18 Sur 0 -- -- 49
2019-05-26 11:00:00 21.8 14 Nordeste 33 Nordeste 0 -- -- 56
2019-05-26 10:00:00 19.8 20 Nordeste 36 Nordeste 0 -- -- 61
2019-05-26 09:00:00 17.5 12 Nordeste 27 Nordeste 0 -- -- 68
2019-05-26 08:00:00 16 5 Este 19 Norte 0 -- -- 74
2019-05-26 07:00:00 16.6 9 Nordeste 20 Nordeste 0 -- -- 71
2019-05-26 06:00:00 16.9 6 Nordeste 21 Este 0 -- -- 66
2019-05-26 05:00:00 17.6 10 Nordeste 33 Nordeste 0 -- -- 61
2019-05-26 04:00:00 17.3 17 Nordeste 35 Este 0 -- -- 65
2019-05-26 03:00:00 17.1 12 Norte 34 Norte 0 -- -- 68
2019-05-26 02:00:00 17.5 9 Norte 34 Este 0 -- -- 64
2019-05-26 01:00:00 18 19 Norte 41 Nordeste 0 -- -- 62
2019-05-26 00:00:00 19.1 19 Nordeste 38 Este 0 -- -- 56